Time;durP1;ratioP1;P1;durP2;ratioP2;P2;SDS_P1;SDS_P2;PMS_P1;PMS_P2;Temp;Humidity;BMP_temperature;BMP_pressure;BME280_temperature;BME280_humidity;BME280_pressure;Samples;Min_cycle;Max_cycle;Signal;HPM_P1;HPM_P2
2022/05/27 00:01:10;;;;;;;0.60;0.13;;;18.20;99.90;;;;;;5072592;28;20451;-75
2022/05/27 00:03:39;;;;;;;1.00;0.50;;;18.10;99.90;;;;;;5072217;28;20446;-74
2022/05/27 00:06:08;;;;;;;0.60;0.20;;;18.10;99.90;;;;;;5071514;28;21007;-74
2022/05/27 00:08:37;;;;;;;1.20;1.07;;;18.00;99.90;;;;;;5072181;28;20470;-74
2022/05/27 00:11:05;;;;;;;0.80;0.30;;;18.00;99.90;;;;;;5072322;28;20477;-75
2022/05/27 00:13:33;;;;;;;0.60;0.10;;;18.00;99.90;;;;;;5072185;28;20770;-73
2022/05/27 00:16:01;;;;;;;0.70;0.40;;;18.00;99.90;;;;;;5071721;28;20544;-74
2022/05/27 00:18:29;;;;;;;0.60;0.20;;;18.00;99.90;;;;;;5071799;28;20484;-74
2022/05/27 00:21:00;;;;;;;0.73;0.40;;;18.00;99.90;;;;;;5072811;28;20913;-76
2022/05/27 00:23:28;;;;;;;0.60;0.20;;;18.00;99.90;;;;;;5073916;28;20475;-75
2022/05/27 00:25:56;;;;;;;0.60;0.10;;;18.00;99.90;;;;;;5074042;28;20813;-75
2022/05/27 00:28:24;;;;;;;0.60;0.20;;;18.00;99.90;;;;;;5071836;28;20565;-74
2022/05/27 00:30:53;;;;;;;0.60;0.10;;;18.10;99.90;;;;;;5072062;28;20438;-75
2022/05/27 00:33:21;;;;;;;0.90;0.53;;;18.00;99.90;;;;;;5071893;28;20897;-75
2022/05/27 00:35:49;;;;;;;0.60;0.30;;;17.90;99.90;;;;;;5071745;28;20454;-74
2022/05/27 00:38:19;;;;;;;0.70;0.40;;;17.90;99.90;;;;;;5071334;28;20461;-74
2022/05/27 00:40:50;;;;;;;0.60;0.10;;;17.80;99.90;;;;;;5071706;28;20460;-74
2022/05/27 00:43:19;;;;;;;0.60;0.20;;;17.80;99.90;;;;;;5071624;28;20452;-74
2022/05/27 00:45:53;;;;;;;0.60;0.10;;;17.70;99.90;;;;;;5071585;28;20498;-75
2022/05/27 00:48:27;;;;;;;0.60;0.17;;;17.70;99.90;;;;;;5070319;28;20491;-75
2022/05/27 00:50:57;;;;;;;0.60;0.10;;;17.80;99.90;;;;;;5071752;28;20468;-74
2022/05/27 00:53:42;;;;;;;0.80;0.40;;;17.80;99.90;;;;;;5072261;28;20468;-75
2022/05/27 00:56:14;;;;;;;0.60;0.17;;;17.70;99.90;;;;;;5071222;28;20441;-75
2022/05/27 00:58:46;;;;;;;0.60;0.20;;;17.60;99.90;;;;;;5071703;28;20462;-74
2022/05/27 01:01:15;;;;;;;0.60;0.20;;;17.70;99.90;;;;;;5071508;28;20446;-75
2022/05/27 01:03:44;;;;;;;0.80;0.37;;;17.60;99.90;;;;;;5071724;28;20507;-75
2022/05/27 01:06:12;;;;;;;0.60;0.30;;;17.50;1.00;;;;;;5070835;28;20861;-75
2022/05/27 01:08:44;;;;;;;0.60;0.10;;;18.20;1.00;;;;;;5073129;28;20991;-75
2022/05/27 01:11:21;;;;;;;0.97;0.20;;;17.40;1.00;;;;;;5071226;28;20474;-75
2022/05/27 01:13:58;;;;;;;0.70;0.30;;;17.40;1.00;;;;;;5071181;28;20940;-76
2022/05/27 01:16:35;;;;;;;1.13;1.03;;;17.40;1.00;;;;;;5070345;28;20520;-74
2022/05/27 01:22:33;;;;;;;0.60;0.20;;;17.50;1.00;;;;;;5071101;28;20909;-74
2022/05/27 01:25:30;;;;;;;0.60;0.10;;;17.50;1.00;;;;;;5070809;28;20572;-74
2022/05/27 01:28:23;;;;;;;0.60;0.17;;;17.60;1.00;;;;;;5070252;28;20481;-75
2022/05/27 01:30:55;;;;;;;0.60;0.20;;;17.60;1.00;;;;;;5070906;28;20442;-75
2022/05/27 01:33:35;;;;;;;0.60;0.10;;;17.40;1.00;;;;;;5070802;28;20442;-76
2022/05/27 01:36:11;;;;;;;0.90;0.73;;;17.30;1.00;;;;;;5069607;28;20437;-75
2022/05/27 01:38:45;;;;;;;0.60;0.20;;;17.20;1.00;;;;;;5069606;28;20449;-74
2022/05/27 01:41:20;;;;;;;0.60;0.10;;;17.20;1.00;;;;;;5069781;28;20885;-75
2022/05/27 01:43:56;;;;;;;1.30;0.20;;;17.20;1.00;;;;;;5069953;28;20455;-75
2022/05/27 01:46:31;;;;;;;0.60;0.10;;;17.20;1.00;;;;;;5070676;28;20447;-75
2022/05/27 01:49:05;;;;;;;0.60;0.10;;;17.20;1.00;;;;;;5070221;28;20554;-74
2022/05/27 01:51:40;;;;;;;0.60;0.10;;;17.20;1.00;;;;;;5070421;28;20531;-75
2022/05/27 01:54:12;;;;;;;0.60;0.10;;;17.20;1.00;;;;;;5070564;28;20933;-75
2022/05/27 01:56:44;;;;;;;0.97;0.37;;;17.20;1.00;;;;;;5070429;28;20438;-74
2022/05/27 01:59:17;;;;;;;0.60;0.10;;;17.10;1.00;;;;;;5070750;28;20477;-74
2022/05/27 02:01:51;;;;;;;0.60;0.30;;;17.00;1.00;;;;;;5070598;28;20541;-75
2022/05/27 02:04:26;;;;;;;0.60;0.10;;;16.90;1.00;;;;;;5070265;28;20452;-75
2022/05/27 02:06:59;;;;;;;0.80;0.70;;;16.70;1.00;;;;;;5070163;28;20771;-75
2022/05/27 02:09:31;;;;;;;2.03;0.70;;;16.50;1.00;;;;;;5070395;28;20473;-74
2022/05/27 02:12:04;;;;;;;0.60;0.10;;;16.50;1.00;;;;;;5070609;28;20532;-74
2022/05/27 02:14:46;;;;;;;0.60;0.20;;;16.50;1.00;;;;;;5070816;28;20483;-74
2022/05/27 02:17:19;;;;;;;0.60;0.10;;;16.60;1.00;;;;;;5070857;28;20445;-75
2022/05/27 02:19:51;;;;;;;0.60;0.20;;;16.60;1.00;;;;;;5071037;28;20466;-75
2022/05/27 02:22:23;;;;;;;0.60;0.20;;;16.60;1.00;;;;;;5071268;28;20928;-74
2022/05/27 02:24:57;;;;;;;13.90;0.77;;;16.60;1.00;;;;;;5070642;28;20446;-74
2022/05/27 02:27:32;;;;;;;0.60;0.10;;;16.40;1.00;;;;;;5070082;28;20980;-75
2022/05/27 02:30:06;;;;;;;0.70;0.30;;;16.40;1.00;;;;;;5070655;28;20465;-74
2022/05/27 02:32:39;;;;;;;0.70;0.20;;;16.30;1.00;;;;;;5070829;28;20446;-74
2022/05/27 02:35:11;;;;;;;0.70;0.40;;;16.20;1.00;;;;;;5070787;28;20445;-75
2022/05/27 02:37:42;;;;;;;0.80;0.60;;;16.10;1.00;;;;;;5070202;28;20442;-74
2022/05/27 02:40:15;;;;;;;1.60;1.50;;;16.10;1.00;;;;;;5071449;28;20445;-77
2022/05/27 02:42:57;;;;;;;0.60;0.10;;;16.10;1.00;;;;;;5071789;28;20437;-75
2022/05/27 02:45:33;;;;;;;0.70;0.20;;;16.20;1.00;;;;;;5071621;28;20474;-74
2022/05/27 02:48:13;;;;;;;0.60;0.10;;;16.20;1.00;;;;;;5071282;28;20542;-74
2022/05/27 02:50:47;;;;;;;0.60;0.13;;;16.30;1.00;;;;;;5074691;28;20445;-74
2022/05/27 02:53:23;;;;;;;0.60;0.10;;;16.40;1.00;;;;;;5074873;28;20540;-74
2022/05/27 02:56:03;;;;;;;0.60;0.10;;;16.40;1.00;;;;;;5074111;28;20448;-74
2022/05/27 02:58:32;;;;;;;0.60;0.10;;;16.50;1.00;;;;;;5074210;28;20461;-74
2022/05/27 03:01:01;;;;;;;0.60;0.10;;;16.50;1.00;;;;;;5075034;28;20516;-74
2022/05/27 03:03:31;;;;;;;0.60;0.17;;;16.60;1.00;;;;;;5074981;28;20441;-73
2022/05/27 03:06:11;;;;;;;0.60;0.10;;;16.70;1.00;;;;;;5074705;28;20450;-74
2022/05/27 03:08:48;;;;;;;0.60;0.20;;;16.70;1.00;;;;;;5074623;28;20493;-74
2022/05/27 03:11:24;;;;;;;0.60;0.10;;;16.70;1.00;;;;;;5074753;28;20437;-74
2022/05/27 03:14:13;;;;;;;1.80;1.60;;;16.60;1.00;;;;;;5075778;28;20459;-74
2022/05/27 03:16:56;;;;;;;0.60;0.20;;;16.70;1.00;;;;;;5075752;28;20445;-74
2022/05/27 03:19:38;;;;;;;0.60;0.10;;;16.70;1.00;;;;;;5074917;28;20466;-74
2022/05/27 03:22:16;;;;;;;0.60;0.20;;;16.70;1.00;;;;;;5075161;28;20459;-74
2022/05/27 03:24:54;;;;;;;0.60;0.20;;;16.60;1.00;;;;;;5076918;28;20451;-75
2022/05/27 03:27:31;;;;;;;0.60;0.10;;;16.50;1.00;;;;;;5074898;28;20441;-74
2022/05/27 03:30:07;;;;;;;0.60;0.10;;;16.50;1.00;;;;;;5075644;28;20454;-74
2022/05/27 03:32:42;;;;;;;0.60;0.10;;;16.60;1.00;;;;;;5078728;28;20519;-75
2022/05/27 03:35:16;;;;;;;0.60;0.20;;;16.60;1.00;;;;;;5072907;28;20448;-75
2022/05/27 03:37:49;;;;;;;0.60;0.10;;;16.60;1.00;;;;;;5072649;28;20455;-75
2022/05/27 03:40:23;;;;;;;0.60;0.10;;;16.60;1.00;;;;;;5072929;28;20856;-74
2022/05/27 03:42:53;;;;;;;0.60;0.10;;;16.60;1.00;;;;;;5074076;28;20452;-74
2022/05/27 03:45:24;;;;;;;0.60;0.10;;;16.60;1.00;;;;;;5073864;28;20929;-76
2022/05/27 03:47:53;;;;;;;0.60;0.10;;;16.70;1.00;;;;;;5074752;28;20483;-73
2022/05/27 03:50:25;;;;;;;0.60;0.10;;;16.70;1.00;;;;;;5075176;28;20445;-74
2022/05/27 03:52:55;;;;;;;0.60;0.20;;;16.70;1.00;;;;;;5074777;28;20815;-75
2022/05/27 03:55:26;;;;;;;0.60;0.10;;;16.80;1.00;;;;;;5076717;28;20445;-74
2022/05/27 03:57:54;;;;;;;0.60;0.13;;;16.80;1.00;;;;;;5074490;28;20978;-76
2022/05/27 04:00:24;;;;;;;0.60;0.20;;;16.70;1.00;;;;;;5073700;28;20773;-76
2022/05/27 04:02:52;;;;;;;0.60;0.20;;;16.70;1.00;;;;;;5073664;28;20537;-74
2022/05/27 04:05:26;;;;;;;0.60;0.10;;;16.80;1.00;;;;;;5073535;28;20437;-74
2022/05/27 04:07:54;;;;;;;0.60;0.20;;;16.80;1.00;;;;;;5073336;28;20442;-75
2022/05/27 04:10:22;;;;;;;0.60;0.10;;;16.80;1.00;;;;;;5074929;28;20456;-75
2022/05/27 04:12:50;;;;;;;0.60;0.10;;;16.80;1.00;;;;;;5075603;28;20460;-75
2022/05/27 04:15:18;;;;;;;0.70;0.30;;;16.80;1.00;;;;;;5073180;28;20529;-74
2022/05/27 04:17:46;;;;;;;0.90;0.67;;;16.80;1.00;;;;;;5071991;28;20461;-74
2022/05/27 04:20:16;;;;;;;0.60;0.10;;;16.70;1.00;;;;;;5073150;28;20463;-75
2022/05/27 04:22:45;;;;;;;0.60;0.10;;;16.70;1.00;;;;;;5074126;28;20473;-75
2022/05/27 04:25:14;;;;;;;0.60;0.23;;;16.70;1.00;;;;;;5074599;28;20433;-74
2022/05/27 04:27:43;;;;;;;0.60;0.13;;;16.60;1.00;;;;;;5072708;28;20499;-76
2022/05/27 04:30:12;;;;;;;0.60;0.10;;;16.50;1.00;;;;;;5071302;28;20868;-74
2022/05/27 04:32:40;;;;;;;0.60;0.10;;;16.40;1.00;;;;;;5060186;28;20447;-73
2022/05/27 04:35:09;;;;;;;0.60;0.20;;;16.40;1.00;;;;;;5065166;28;20441;-74
2022/05/27 04:37:37;;;;;;;0.60;0.10;;;;;;;;;;5069285;28;20472;-75
2022/05/27 04:40:08;;;;;;;0.60;0.10;;;16.50;1.00;;;;;;5069475;28;20443;-76
2022/05/27 04:42:36;;;;;;;1.27;0.40;;;16.50;1.00;;;;;;5070561;28;20452;-74
2022/05/27 04:45:05;;;;;;;0.60;0.20;;;16.40;1.00;;;;;;5060883;28;20479;-75
2022/05/27 04:47:33;;;;;;;0.60;0.10;;;16.50;1.00;;;;;;5071397;28;20445;-76
2022/05/27 04:50:01;;;;;;;0.60;0.20;;;16.50;1.00;;;;;;5072522;28;20499;-75
2022/05/27 04:52:32;;;;;;;0.60;0.10;;;16.60;1.00;;;;;;5069273;28;20465;-74
2022/05/27 04:55:02;;;;;;;1.30;1.03;;;16.60;1.00;;;;;;5058609;28;21016;-74
2022/05/27 04:57:35;;;;;;;0.60;0.10;;;16.40;1.00;;;;;;5063925;28;20546;-75
2022/05/27 05:00:07;;;;;;;0.80;0.67;;;16.40;1.00;;;;;;5055145;28;20936;-75
2022/05/27 05:02:35;;;;;;;0.60;0.10;;;16.30;1.00;;;;;;5070896;28;20444;-76
2022/05/27 05:05:10;;;;;;;0.70;0.20;;;16.30;1.00;;;;;;5070933;28;20926;-76
2022/05/27 05:07:40;;;;;;;1.97;0.67;;;16.30;1.00;;;;;;5070408;28;20967;-76
2022/05/27 05:10:09;;;;;;;0.70;0.40;;;16.40;1.00;;;;;;5060461;28;20495;-74
2022/05/27 05:12:38;;;;;;;0.60;0.10;;;16.50;1.00;;;;;;5069689;28;21114;-76
2022/05/27 05:15:07;;;;;;;2.10;1.23;;;16.40;1.00;;;;;;5068572;28;20464;-74
2022/05/27 05:17:35;;;;;;;0.60;0.20;;;16.50;1.00;;;;;;5072049;28;20557;-75
2022/05/27 05:20:04;;;;;;;0.60;0.10;;;16.40;1.00;;;;;;5071876;28;20460;-74
2022/05/27 05:22:33;;;;;;;0.60;0.10;;;16.50;1.00;;;;;;5071817;28;20515;-74
2022/05/27 05:25:01;;;;;;;0.73;0.30;;;16.60;1.00;;;;;;5071886;28;20455;-74
2022/05/27 05:27:29;;;;;;;0.60;0.13;;;16.60;1.00;;;;;;5071646;28;20540;-76
2022/05/27 05:29:59;;;;;;;0.60;0.27;;;16.70;1.00;;;;;;5071354;28;20950;-74
2022/05/27 05:32:27;;;;;;;3.90;1.17;;;16.70;1.00;;;;;;5072120;28;20457;-71
2022/05/27 05:34:55;;;;;;;0.60;0.23;;;16.70;1.00;;;;;;5067790;28;20478;-75
2022/05/27 05:37:23;;;;;;;0.60;0.10;;;16.70;1.00;;;;;;5067524;28;20568;-75
2022/05/27 05:39:51;;;;;;;0.90;0.40;;;16.70;1.00;;;;;;5071839;28;20472;-74
2022/05/27 05:42:20;;;;;;;0.60;0.20;;;16.70;1.00;;;;;;5071539;28;20491;-74
2022/05/27 05:44:47;;;;;;;0.60;0.20;;;16.70;1.00;;;;;;5071765;28;20449;-74
2022/05/27 05:47:16;;;;;;;1.00;0.40;;;16.70;1.00;;;;;;5071493;28;20452;-75
2022/05/27 05:49:44;;;;;;;0.60;0.10;;;16.70;1.00;;;;;;5072852;28;20527;-75
2022/05/27 05:52:12;;;;;;;5.50;0.80;;;16.60;1.00;;;;;;5072619;28;20456;-74
2022/05/27 05:54:40;;;;;;;0.60;0.20;;;16.60;1.00;;;;;;5067909;28;20479;-74
2022/05/27 05:57:08;;;;;;;0.90;0.50;;;16.60;1.00;;;;;;5070734;28;20536;-75
2022/05/27 05:59:38;;;;;;;0.80;0.63;;;16.60;1.00;;;;;;5065039;28;20823;-75
2022/05/27 06:02:08;;;;;;;0.60;0.20;;;16.60;1.00;;;;;;5067322;28;21142;-75
2022/05/27 06:04:37;;;;;;;0.70;0.30;;;16.60;1.00;;;;;;5068247;28;20440;-74
2022/05/27 06:07:12;;;;;;;0.70;0.30;;;16.60;1.00;;;;;;5071482;28;20443;-75
2022/05/27 06:09:40;;;;;;;0.70;0.20;;;16.70;1.00;;;;;;5070944;28;20485;-75
2022/05/27 06:12:09;;;;;;;1.10;0.67;;;16.70;1.00;;;;;;5070553;28;20555;-75
2022/05/27 06:14:38;;;;;;;0.60;0.10;;;16.70;1.00;;;;;;5058943;28;20435;-75
2022/05/27 06:17:06;;;;;;;0.90;0.47;;;;;;;;;;5050542;28;20435;-75
2022/05/27 06:19:34;;;;;;;0.67;0.40;;;16.70;1.00;;;;;;5050732;28;20470;-74
2022/05/27 06:22:03;;;;;;;0.87;0.30;;;16.70;1.00;;;;;;5061509;28;20535;-74
2022/05/27 06:24:31;;;;;;;1.27;0.50;;;16.70;1.00;;;;;;5071995;28;20511;-73
2022/05/27 06:26:59;;;;;;;1.13;0.93;;;16.70;1.00;;;;;;5074541;28;20801;-74
2022/05/27 06:34:58;;;;;;;0.60;0.20;;;16.80;1.00;;;;;;5073928;28;20448;-75
2022/05/27 06:37:28;;;;;;;5.90;1.30;;;16.90;1.00;;;;;;5073880;28;20445;-75
2022/05/27 06:39:58;;;;;;;0.80;0.40;;;16.90;1.00;;;;;;5074238;28;20454;-74
2022/05/27 06:42:27;;;;;;;1.00;0.50;;;16.90;1.00;;;;;;5071659;28;20552;-75
2022/05/27 06:45:05;;;;;;;0.60;0.10;;;17.00;1.00;;;;;;5057387;28;20472;-74
2022/05/27 06:47:33;;;;;;;1.27;1.17;;;17.00;1.00;;;;;;5073732;28;20443;-75
2022/05/27 06:50:01;;;;;;;2.50;0.77;;;17.10;1.00;;;;;;5077076;28;20485;-73
2022/05/27 06:52:31;;;;;;;0.80;0.40;;;17.10;1.00;;;;;;5077208;28;20456;-76
2022/05/27 06:54:59;;;;;;;0.70;0.40;;;17.20;1.00;;;;;;5076648;28;20537;-74
2022/05/27 06:57:28;;;;;;;0.70;0.30;;;17.20;1.00;;;;;;5075737;28;20449;-74
2022/05/27 06:59:56;;;;;;;1.20;0.73;;;17.10;1.00;;;;;;5074478;28;20983;-74
2022/05/27 07:02:24;;;;;;;0.60;0.10;;;17.10;1.00;;;;;;5075017;28;20869;-74
2022/05/27 07:04:52;;;;;;;0.63;0.20;;;17.10;1.00;;;;;;5069218;28;20476;-74
2022/05/27 07:07:26;;;;;;;0.70;0.20;;;17.30;1.00;;;;;;5071911;28;20556;-74
2022/05/27 07:09:55;;;;;;;0.60;0.10;;;17.30;1.00;;;;;;5073853;28;20538;-75
2022/05/27 07:12:23;;;;;;;0.93;0.50;;;17.40;1.00;;;;;;5073659;28;20949;-74
2022/05/27 07:14:52;;;;;;;0.77;0.27;;;17.40;1.00;;;;;;5072784;28;20936;-74
2022/05/27 07:17:20;;;;;;;0.60;0.30;;;17.30;1.00;;;;;;5073528;28;20445;-75
2022/05/27 07:19:48;;;;;;;0.60;0.20;;;17.40;1.00;;;;;;5073576;28;21005;-74
2022/05/27 07:22:16;;;;;;;0.70;0.30;;;17.40;1.00;;;;;;5073815;28;20460;-75
2022/05/27 07:24:44;;;;;;;0.70;0.40;;;17.50;1.00;;;;;;5057216;28;20454;-74
2022/05/27 07:27:13;;;;;;;0.60;0.10;;;17.50;1.00;;;;;;5073574;28;20496;-73
2022/05/27 07:29:41;;;;;;;1.57;0.70;;;17.60;1.00;;;;;;5074650;28;20461;-74
2022/05/27 07:32:10;;;;;;;1.20;0.97;;;;;;;;;;5074840;28;20459;-73
2022/05/27 07:34:38;;;;;;;1.00;0.40;;;17.60;1.00;;;;;;5074651;28;20453;-73
2022/05/27 07:37:06;;;;;;;0.67;0.37;;;17.60;1.00;;;;;;5074669;28;20539;-74
2022/05/27 07:39:34;;;;;;;0.70;0.33;;;17.50;1.00;;;;;;5075794;28;20471;-74
2022/05/27 07:42:02;;;;;;;0.60;0.20;;;17.50;1.00;;;;;;5072952;28;20457;-74
2022/05/27 07:44:32;;;;;;;0.60;0.20;;;17.50;1.00;;;;;;5073889;28;20452;-74
2022/05/27 07:46:59;;;;;;;1.00;0.63;;;17.60;1.00;;;;;;5072699;28;20446;-74
2022/05/27 07:49:28;;;;;;;0.90;0.80;;;17.50;1.00;;;;;;5072780;28;20540;-74
2022/05/27 07:52:01;;;;;;;0.60;0.20;;;17.50;1.00;;;;;;5077442;28;20484;-73
2022/05/27 07:54:29;;;;;;;0.80;0.30;;;17.40;1.00;;;;;;5059367;28;20461;-74
2022/05/27 07:56:57;;;;;;;0.60;0.20;;;17.40;1.00;;;;;;5057221;28;20481;-76
2022/05/27 07:59:25;;;;;;;0.60;0.20;;;17.60;1.00;;;;;;5050639;28;20504;-75
2022/05/27 08:01:55;;;;;;;0.90;0.40;;;17.70;1.00;;;;;;5053146;28;20447;-74
2022/05/27 08:04:23;;;;;;;0.60;0.20;;;17.70;1.00;;;;;;5055080;28;20553;-74
2022/05/27 08:06:51;;;;;;;0.60;0.10;;;17.70;1.00;;;;;;5054784;28;20434;-73
2022/05/27 08:09:19;;;;;;;0.60;0.10;;;17.90;1.00;;;;;;5053702;28;20465;-76
2022/05/27 08:11:47;;;;;;;0.60;0.20;;;;;;;;;;5036776;28;20619;-75
2022/05/27 08:14:15;;;;;;;0.60;0.20;;;17.80;1.00;;;;;;5047637;28;20476;-75
2022/05/27 08:16:43;;;;;;;0.60;0.10;;;17.90;1.00;;;;;;5054309;28;20941;-76
2022/05/27 08:19:12;;;;;;;0.70;0.30;;;18.00;1.00;;;;;;5054374;28;20471;-74
2022/05/27 08:21:40;;;;;;;0.60;0.30;;;18.00;1.00;;;;;;5053189;28;20446;-74
2022/05/27 08:24:09;;;;;;;0.70;0.20;;;17.90;1.00;;;;;;5052441;28;20553;-75
2022/05/27 08:26:38;;;;;;;0.60;0.10;;;17.80;1.00;;;;;;5052108;28;20441;-74
2022/05/27 08:29:08;;;;;;;0.60;0.10;;;17.90;1.00;;;;;;5052395;28;21055;-75
2022/05/27 08:31:37;;;;;;;0.80;0.50;;;18.10;1.00;;;;;;5052130;28;20483;-76
2022/05/27 08:39:40;;;;;;;0.60;0.20;;;18.40;1.00;;;;;;5046709;28;20538;-74
2022/05/27 08:42:20;;;;;;;0.60;0.10;;;18.50;1.00;;;;;;5053205;28;20453;-73
2022/05/27 08:44:52;;;;;;;0.60;0.10;;;18.50;1.00;;;;;;5053331;28;20931;-71
2022/05/27 08:47:25;;;;;;;0.70;0.30;;;18.80;99.90;;;;;;5052058;28;20434;-72
2022/05/27 08:50:03;;;;;;;0.60;0.10;;;18.70;99.90;;;;;;5053222;28;20553;-71
2022/05/27 08:52:39;;;;;;;0.60;0.10;;;18.50;99.90;;;;;;5053073;28;20552;-72
2022/05/27 09:01:05;;;;;;;0.60;0.13;;;18.50;99.90;;;;;;5049164;28;20456;-73
2022/05/27 09:03:42;;;;;;;0.60;0.10;;;17.40;99.90;;;;;;5046081;28;20439;-73
2022/05/27 09:06:10;;;;;;;0.60;0.10;;;18.30;1.00;;;;;;5051232;28;20492;-74
2022/05/27 09:08:40;;;;;;;0.60;0.10;;;18.30;1.00;;;;;;5051769;28;20573;-74
2022/05/27 09:11:26;;;;;;;0.60;0.27;;;18.30;1.00;;;;;;5045885;28;20482;-74
2022/05/27 09:14:02;;;;;;;0.60;0.20;;;18.10;1.00;;;;;;5052044;28;20559;-74
2022/05/27 09:16:38;;;;;;;0.60;0.10;;;18.20;1.00;;;;;;5050149;28;20454;-73
2022/05/27 09:19:31;;;;;;;0.60;0.20;;;18.20;1.00;;;;;;5044537;28;20471;-72
2022/05/27 09:22:09;;;;;;;0.80;0.30;;;18.20;1.00;;;;;;5042334;28;20470;-72
2022/05/27 09:24:47;;;;;;;0.60;0.10;;;18.10;1.00;;;;;;5047545;28;20465;-73
2022/05/27 09:27:21;;;;;;;0.60;0.20;;;18.20;1.00;;;;;;5050394;28;20947;-74
2022/05/27 09:29:58;;;;;;;0.60;0.20;;;18.10;1.00;;;;;;5049354;28;20569;-74
2022/05/27 09:32:32;;;;;;;0.60;0.10;;;18.10;1.00;;;;;;5050971;28;20484;-76
2022/05/27 09:35:06;;;;;;;0.60;0.23;;;18.30;1.00;;;;;;5051391;28;20446;-74
2022/05/27 09:37:58;;;;;;;0.60;0.20;;;18.30;1.00;;;;;;5050731;28;20456;-75
2022/05/27 09:40:34;;;;;;;0.60;0.10;;;18.30;1.00;;;;;;5051638;28;20473;-75
2022/05/27 09:43:09;;;;;;;0.60;0.10;;;18.30;1.00;;;;;;5051038;28;20885;-75
2022/05/27 09:45:37;;;;;;;0.70;0.40;;;18.60;1.00;;;;;;5050917;28;20434;-74
2022/05/27 09:48:06;;;;;;;0.60;0.20;;;18.50;99.90;;;;;;5052493;28;20536;-74
2022/05/27 09:50:40;;;;;;;0.60;0.20;;;18.50;99.90;;;;;;5052994;28;20913;-74
2022/05/27 09:53:12;;;;;;;0.60;0.20;;;18.50;1.00;;;;;;5051118;28;20488;-74
2022/05/27 09:55:48;;;;;;;0.80;0.20;;;18.60;1.00;;;;;;5050918;28;20435;-74
2022/05/27 09:58:24;;;;;;;0.60;0.20;;;18.40;1.00;;;;;;5053030;28;20481;-74
2022/05/27 10:00:52;;;;;;;0.60;0.20;;;18.40;1.00;;;;;;5055532;28;20446;-75
2022/05/27 10:03:23;;;;;;;0.70;0.20;;;18.40;1.00;;;;;;5054536;28;20449;-74
2022/05/27 10:05:53;;;;;;;0.60;0.10;;;18.30;1.00;;;;;;5055067;28;20443;-74
2022/05/27 10:08:29;;;;;;;0.60;0.10;;;18.40;1.00;;;;;;5054880;28;20496;-75
2022/05/27 10:11:21;;;;;;;0.60;0.10;;;18.40;1.00;;;;;;5056370;28;20449;-75
2022/05/27 10:13:51;;;;;;;0.60;0.10;;;18.40;1.00;;;;;;5054562;28;20480;-74
2022/05/27 10:16:25;;;;;;;0.60;0.10;;;18.40;1.00;;;;;;5054523;28;20445;-75
2022/05/27 10:19:08;;;;;;;0.60;0.10;;;18.50;1.00;;;;;;5055034;28;20520;-74
2022/05/27 10:21:50;;;;;;;0.60;0.20;;;18.40;1.00;;;;;;5055065;28;20595;-75
2022/05/27 10:24:23;;;;;;;0.60;0.10;;;18.40;1.00;;;;;;5054222;28;20540;-75
2022/05/27 10:27:14;;;;;;;0.60;0.10;;;18.40;1.00;;;;;;5054216;28;20529;-74
2022/05/27 10:29:52;;;;;;;0.60;0.30;;;18.40;1.00;;;;;;5050836;28;20488;-74
2022/05/27 10:32:31;;;;;;;0.60;0.13;;;18.40;1.00;;;;;;5049224;28;21042;-75
2022/05/27 10:35:00;;;;;;;0.60;0.13;;;18.40;1.00;;;;;;5040537;28;20461;-75
2022/05/27 10:37:47;;;;;;;0.60;0.10;;;18.40;1.00;;;;;;5046074;28;20442;-76
2022/05/27 10:40:32;;;;;;;0.60;0.13;;;18.50;1.00;;;;;;5053950;28;20442;-75
2022/05/27 10:43:15;;;;;;;0.60;0.10;;;18.60;1.00;;;;;;5054927;28;20438;-74
2022/05/27 10:45:47;;;;;;;0.60;0.10;;;18.60;1.00;;;;;;5053701;28;20453;-75
2022/05/27 10:49:05;;;;;;;0.60;0.10;;;18.60;1.00;;;;;;5047160;28;20980;-74
2022/05/27 10:51:48;;;;;;;0.60;0.10;;;18.60;1.00;;;;;;5042621;28;20458;-74
2022/05/27 10:54:30;;;;;;;0.60;0.10;;;18.70;1.00;;;;;;5042901;28;20473;-74
2022/05/27 11:03:17;;;;;;;0.60;0.20;;;18.70;1.00;;;;;;5040232;28;20477;-74
2022/05/27 11:06:03;;;;;;;0.60;0.10;;;18.90;1.00;;;;;;5053129;28;20492;-74
2022/05/27 11:08:48;;;;;;;0.60;0.20;;;18.90;1.00;;;;;;5033620;28;20566;-75
2022/05/27 11:11:26;;;;;;;0.60;0.10;;;18.90;1.00;;;;;;5033379;28;20458;-75
2022/05/27 11:17:12;;;;;;;0.60;0.20;;;19.10;1.00;;;;;;5034142;28;20478;-75
2022/05/27 11:20:02;;;;;;;0.60;0.10;;;19.40;1.00;;;;;;5035927;28;20493;-75
2022/05/27 11:22:35;;;;;;;0.60;0.20;;;19.40;1.00;;;;;;5054033;28;20446;-74
2022/05/27 11:25:39;;;;;;;0.60;0.10;;;19.60;1.00;;;;;;5054568;28;20437;-75
2022/05/27 11:28:31;;;;;;;0.60;0.10;;;19.80;1.00;;;;;;4991553;28;20496;-75
2022/05/27 11:31:07;;;;;;;0.60;0.10;;;19.80;1.00;;;;;;5050336;28;20512;-75
2022/05/27 11:33:44;;;;;;;0.60;0.10;;;19.90;99.90;;;;;;5054427;28;20493;-75
2022/05/27 11:36:31;;;;;;;0.60;0.20;;;19.90;99.90;;;;;;5053901;28;20438;-74
2022/05/27 11:39:25;;;;;;;0.60;0.17;;;19.90;99.90;;;;;;5054221;28;20871;-76
2022/05/27 11:42:07;;;;;;;0.60;0.10;;;19.80;99.90;;;;;;5037708;28;20477;-76
2022/05/27 11:44:43;;;;;;;0.70;0.20;;;19.50;99.90;;;;;;5048955;28;20443;-76
2022/05/27 11:47:42;;;;;;;0.60;0.10;;;19.40;99.90;;;;;;5054096;28;20454;-76
2022/05/27 11:50:23;;;;;;;0.60;0.10;;;19.40;99.90;;;;;;5028390;28;20442;-75
2022/05/27 11:53:09;;;;;;;0.60;0.10;;;19.20;99.90;;;;;;5053060;28;20505;-75
2022/05/27 11:55:54;;;;;;;0.60;0.10;;;19.10;99.90;;;;;;5052301;28;20453;-75
2022/05/27 11:58:26;;;;;;;0.60;0.20;;;18.90;1.00;;;;;;5052786;28;20505;-76
2022/05/27 12:01:00;;;;;;;0.60;0.10;;;18.90;1.00;;;;;;5053462;28;20537;-75
2022/05/27 12:03:37;;;;;;;0.60;0.20;;;18.80;1.00;;;;;;5053710;28;20959;-74
2022/05/27 12:06:12;;;;;;;0.60;0.20;;;18.70;1.00;;;;;;5052714;28;20498;-74
2022/05/27 12:08:44;;;;;;;0.60;0.10;;;18.60;1.00;;;;;;5060972;28;20454;-76
2022/05/27 12:11:17;;;;;;;0.90;0.57;;;16.00;1.00;;;;;;5053478;28;20443;-74
2022/05/27 12:13:49;;;;;;;0.60;0.10;;;18.60;1.00;;;;;;5054262;28;20486;-74
2022/05/27 12:16:20;;;;;;;0.60;0.20;;;18.60;1.00;;;;;;5050932;28;20518;-76
2022/05/27 12:18:52;;;;;;;0.60;0.10;;;18.50;1.00;;;;;;5049343;28;20467;-74
2022/05/27 12:21:24;;;;;;;0.60;0.17;;;18.40;1.00;;;;;;5032330;28;20571;-76
2022/05/27 12:23:56;;;;;;;0.60;0.20;;;18.40;1.00;;;;;;5033458;28;20442;-76
2022/05/27 12:26:29;;;;;;;0.60;0.20;;;15.80;1.00;;;;;;5034663;28;20450;-75
2022/05/27 12:28:58;;;;;;;0.60;0.10;;;18.60;1.00;;;;;;5053330;28;20466;-74
2022/05/27 12:31:27;;;;;;;0.60;0.10;;;18.60;1.00;;;;;;5052985;28;20533;-74
2022/05/27 12:33:55;;;;;;;0.60;0.20;;;18.90;99.90;;;;;;5053386;28;20898;-76
2022/05/27 12:36:27;;;;;;;0.60;0.10;;;19.30;99.90;;;;;;5053131;28;20473;-74
2022/05/27 12:38:57;;;;;;;0.60;0.10;;;19.40;99.90;;;;;;5053333;28;20471;-75
2022/05/27 12:41:35;;;;;;;0.60;0.10;;;19.50;99.90;;;;;;5052753;28;20533;-76
2022/05/27 12:44:10;;;;;;;0.60;0.20;;;19.70;99.90;;;;;;5052750;28;20449;-75
2022/05/27 12:46:42;;;;;;;0.70;0.30;;;19.80;99.90;;;;;;5045661;28;20877;-76
2022/05/27 12:49:25;;;;;;;0.60;0.20;;;20.00;99.90;;;;;;5052216;28;20494;-75
2022/05/27 12:51:56;;;;;;;0.70;0.20;;;20.20;99.90;;;;;;5053120;28;20534;-78
2022/05/27 12:55:00;;;;;;;1.83;0.70;;;20.40;99.90;;;;;;5052368;28;20566;-76
2022/05/27 13:00:57;;;;;;;0.67;0.20;;;20.30;99.90;;;;;;5052777;28;20439;-76
2022/05/27 13:03:51;;;;;;;0.60;0.10;;;20.30;99.90;;;;;;5053756;28;20508;-76
2022/05/27 13:06:40;;;;;;;0.70;0.10;;;20.40;99.90;;;;;;5051791;28;20442;-75
2022/05/27 13:09:36;;;;;;;1.63;0.60;;;20.50;99.90;;;;;;5054195;28;20566;-75
2022/05/27 13:12:05;;;;;;;0.80;0.40;;;20.50;99.90;;;;;;5051941;28;20533;-75
2022/05/27 13:14:46;;;;;;;0.77;0.27;;;20.50;99.90;;;;;;5052656;28;20565;-75
2022/05/27 13:17:43;;;;;;;0.70;0.10;;;20.50;99.90;;;;;;5052060;28;20451;-77
2022/05/27 13:20:25;;;;;;;0.80;0.20;;;20.50;99.90;;;;;;5041830;28;20500;-75
2022/05/27 13:22:59;;;;;;;0.70;0.10;;;22.60;99.90;;;;;;5053934;28;20485;-76
2022/05/27 13:25:35;;;;;;;1.20;0.67;;;20.50;99.90;;;;;;5048525;28;21157;-75
2022/05/27 13:28:06;;;;;;;0.70;0.10;;;20.50;99.90;;;;;;5053253;28;20581;-75
2022/05/27 13:30:57;;;;;;;6.90;1.80;;;20.60;99.90;;;;;;5053639;28;20450;-75
2022/05/27 13:33:28;;;;;;;0.70;0.20;;;20.70;99.90;;;;;;5053438;28;20561;-76
2022/05/27 13:35:57;;;;;;;0.70;0.20;;;;;;;;;;5052909;28;20447;-75
2022/05/27 13:38:28;;;;;;;0.70;0.10;;;21.10;99.90;;;;;;5053046;28;20462;-76
2022/05/27 13:40:58;;;;;;;0.93;0.50;;;21.20;99.90;;;;;;5047565;28;20467;-76
2022/05/27 13:43:33;;;;;;;0.70;0.30;;;21.20;99.90;;;;;;5046771;28;20438;-76
2022/05/27 13:46:15;;;;;;;0.70;0.10;;;21.30;99.90;;;;;;5052604;28;20442;-76
2022/05/27 13:48:47;;;;;;;0.70;0.20;;;21.40;99.90;;;;;;5052025;28;20524;-75
2022/05/27 13:51:19;;;;;;;0.90;0.50;;;21.30;99.90;;;;;;5051576;28;20457;-77
2022/05/27 13:53:49;;;;;;;1.60;1.50;;;21.20;99.90;;;;;;5051952;28;20482;-75
2022/05/27 13:56:21;;;;;;;0.70;0.20;;;21.20;99.90;;;;;;5049886;28;20453;-76
2022/05/27 13:58:57;;;;;;;1.00;0.80;;;21.20;99.90;;;;;;5050205;28;20984;-77
2022/05/27 14:01:35;;;;;;;0.70;0.10;;;21.20;99.90;;;;;;5031371;28;20984;-77